Time;durP1;ratioP1;P1;durP2;ratioP2;P2;SDS_P1;SDS_P2;PMS_P1;PMS_P2;Temp;Humidity;BMP_temperature;BMP_pressure;BME280_temperature;BME280_humidity;BME280_pressure;Samples;Min_cycle;Max_cycle;Signal;HPM_P1;HPM_P2
2021/06/18 00:01:33;;;;;;;3.80;2.15;;;;;;;;;;5056094;28;20213;-46
2021/06/18 00:03:59;;;;;;;5.63;2.38;;;;;;;;;;5043299;28;20877;-47
2021/06/18 00:06:25;;;;;;;4.70;2.38;;;;;;;;;;5036977;28;20176;-46
2021/06/18 00:08:51;;;;;;;4.82;2.58;;;;;;;;;;5055126;28;20262;-47
2021/06/18 00:11:17;;;;;;;4.40;2.60;;;;;;;;;;5047691;28;20234;-47
2021/06/18 00:13:43;;;;;;;2.80;2.40;;;;;;;;;;5053990;28;20218;-47
2021/06/18 00:16:09;;;;;;;4.55;2.10;;;;;;;;;;5054805;28;20179;-47
2021/06/18 00:18:36;;;;;;;2.65;2.05;;;;;;;;;;5046045;28;20188;-46
2021/06/18 00:21:02;;;;;;;4.68;2.40;;;;;;;;;;5043013;28;20566;-46
2021/06/18 00:23:28;;;;;;;3.88;2.10;;;;;;;;;;5040126;28;20259;-46
2021/06/18 00:25:54;;;;;;;4.75;2.05;;;;;;;;;;5036568;28;20199;-46
2021/06/18 00:28:20;;;;;;;4.68;2.20;;;;;;;;;;5055308;28;20179;-46
2021/06/18 00:30:46;;;;;;;5.35;2.10;;;;;;;;;;5054733;28;20453;-46
2021/06/18 00:33:12;;;;;;;3.00;2.17;;;;;;;;;;5055601;28;20449;-46
2021/06/18 00:35:38;;;;;;;3.05;1.98;;;;;;;;;;5055539;28;20167;-46
2021/06/18 00:38:04;;;;;;;3.38;2.15;;;;;;;;;;5053771;28;20174;-47
2021/06/18 00:40:30;;;;;;;4.72;2.30;;;;;;;;;;5054544;28;20182;-46
2021/06/18 00:42:56;;;;;;;2.35;2.15;;;;;;;;;;5055465;28;20198;-46
2021/06/18 00:45:22;;;;;;;2.83;2.20;;;;;;;;;;5055194;28;20458;-47
2021/06/18 00:47:50;;;;;;;4.35;2.40;;;;;;;;;;5054354;28;20186;-46
2021/06/18 00:50:17;;;;;;;2.05;1.88;;;;;;;;;;5055083;28;20236;-47
2021/06/18 00:52:43;;;;;;;2.25;2.05;;;;;;;;;;5044448;28;20187;-46
2021/06/18 00:55:10;;;;;;;3.55;2.40;;;;;;;;;;5036330;28;20188;-47
2021/06/18 00:57:37;;;;;;;5.60;2.45;;;;;;;;;;5045911;28;20206;-46
2021/06/18 01:00:04;;;;;;;4.93;2.15;;;;;;;;;;5054901;28;20190;-47
2021/06/18 01:02:30;;;;;;;2.83;2.10;;;;;;;;;;5054163;28;20264;-46
2021/06/18 01:04:56;;;;;;;3.22;2.20;;;;;;;;;;5054015;28;20187;-46
2021/06/18 01:07:26;;;;;;;3.30;2.00;;;;;;;;;;5053988;28;20183;-46
2021/06/18 01:09:58;;;;;;;3.83;2.08;;;;;;;;;;5054340;28;20183;-46
2021/06/18 01:12:25;;;;;;;3.25;2.33;;;;;;;;;;5052525;28;20179;-46
2021/06/18 01:15:14;;;;;;;2.40;2.20;;;;;;;;;;5054780;28;20171;-46
2021/06/18 01:17:41;;;;;;;2.22;1.85;;;;;;;;;;5052990;28;20642;-46
2021/06/18 01:20:30;;;;;;;3.67;2.30;;;;;;;;;;5053048;28;20190;-46
2021/06/18 01:22:57;;;;;;;3.25;2.17;;;;;;;;;;5029490;28;20790;-46
2021/06/18 01:25:29;;;;;;;3.67;2.05;;;;;;;;;;5043013;28;20190;-46
2021/06/18 01:27:58;;;;;;;3.38;2.40;;;;;;;;;;5053670;28;20194;-46
2021/06/18 01:30:25;;;;;;;2.20;2.03;;;;;;;;;;5053977;28;20289;-46
2021/06/18 01:33:03;;;;;;;2.83;2.10;;;;;;;;;;5050481;28;20176;-46
2021/06/18 01:35:50;;;;;;;3.00;2.15;;;;;;;;;;5034579;28;20221;-46
2021/06/18 01:38:17;;;;;;;5.10;2.33;;;;;;;;;;5051702;28;20186;-46
2021/06/18 01:40:44;;;;;;;2.38;1.92;;;;;;;;;;5053729;28;20176;-46
2021/06/18 01:43:12;;;;;;;2.22;2.03;;;;;;;;;;5054548;28;20550;-46
2021/06/18 01:45:40;;;;;;;4.15;2.00;;;;;;;;;;5053668;28;20581;-46
2021/06/18 01:48:06;;;;;;;2.53;2.30;;;;;;;;;;5050254;28;20190;-46
2021/06/18 01:50:32;;;;;;;2.72;2.30;;;;;;;;;;5054162;28;20600;-46
2021/06/18 01:53:09;;;;;;;3.42;2.28;;;;;;;;;;5053423;28;20186;-46
2021/06/18 01:55:35;;;;;;;3.92;2.22;;;;;;;;;;5054198;28;20594;-47
2021/06/18 01:58:03;;;;;;;3.58;2.00;;;;;;;;;;5053178;28;20194;-46
2021/06/18 02:00:30;;;;;;;2.30;2.10;;;;;;;;;;5053623;28;20185;-46
2021/06/18 02:02:58;;;;;;;2.03;1.83;;;;;;;;;;5052896;28;20220;-46
2021/06/18 02:05:24;;;;;;;2.83;2.08;;;;;;;;;;5053873;28;20478;-46
2021/06/18 02:07:52;;;;;;;4.15;1.98;;;;;;;;;;5047666;28;20175;-46
2021/06/18 02:10:19;;;;;;;2.47;2.10;;;;;;;;;;5040378;28;20180;-46
2021/06/18 02:12:46;;;;;;;3.35;2.40;;;;;;;;;;5053798;28;20185;-46
2021/06/18 02:15:12;;;;;;;4.28;2.03;;;;;;;;;;5054046;28;20190;-46
2021/06/18 02:17:40;;;;;;;4.32;2.05;;;;;;;;;;5053026;28;20198;-46
2021/06/18 02:20:07;;;;;;;4.30;2.10;;;;;;;;;;5047653;28;20192;-46
2021/06/18 02:22:34;;;;;;;3.38;2.40;;;;;;;;;;5034103;28;20218;-46
2021/06/18 02:25:01;;;;;;;2.50;2.30;;;;;;;;;;5034269;28;20222;-47
2021/06/18 02:27:28;;;;;;;3.20;2.35;;;;;;;;;;5044220;28;20618;-45
2021/06/18 02:29:54;;;;;;;2.75;1.88;;;;;;;;;;5053745;28;20550;-46
2021/06/18 02:32:20;;;;;;;2.45;2.25;;;;;;;;;;5053714;28;20637;-46
2021/06/18 02:34:46;;;;;;;3.15;2.40;;;;;;;;;;5047183;28;20189;-46
2021/06/18 02:37:13;;;;;;;2.38;1.95;;;;;;;;;;5053211;28;20190;-46
2021/06/18 02:39:42;;;;;;;3.47;2.38;;;;;;;;;;5053818;28;20240;-46
2021/06/18 02:42:08;;;;;;;2.95;2.20;;;;;;;;;;5053437;28;20199;-46
2021/06/18 02:44:34;;;;;;;2.10;2.00;;;;;;;;;;5053893;28;20266;-46
2021/06/18 02:47:09;;;;;;;3.42;2.20;;;;;;;;;;5052235;28;20262;-47
2021/06/18 02:49:55;;;;;;;4.28;2.17;;;;;;;;;;5053594;28;20167;-47
2021/06/18 02:52:30;;;;;;;2.55;2.15;;;;;;;;;;5053929;28;20547;-46
2021/06/18 02:55:05;;;;;;;3.47;2.40;;;;;;;;;;5053809;28;20182;-46
2021/06/18 02:57:35;;;;;;;4.05;2.20;;;;;;;;;;5052875;28;20261;-46
2021/06/18 03:00:06;;;;;;;2.40;2.20;;;;;;;;;;5053591;28;20554;-46
2021/06/18 03:02:36;;;;;;;2.05;1.85;;;;;;;;;;5053183;28;20202;-46
2021/06/18 03:05:04;;;;;;;2.45;2.22;;;;;;;;;;5057122;28;20175;-46
2021/06/18 03:07:32;;;;;;;4.15;2.13;;;;;;;;;;5056759;28;20186;-46
2021/06/18 03:10:01;;;;;;;3.17;2.25;;;;;;;;;;5057050;28;20174;-46
2021/06/18 03:12:29;;;;;;;2.70;2.22;;;;;;;;;;5056369;28;20250;-47
2021/06/18 03:14:56;;;;;;;4.72;2.45;;;;;;;;;;5056220;28;20690;-46
2021/06/18 03:17:22;;;;;;;2.92;2.30;;;;;;;;;;5048511;28;20441;-46
2021/06/18 03:19:57;;;;;;;2.70;2.08;;;;;;;;;;5037191;28;20172;-46
2021/06/18 03:22:24;;;;;;;2.35;2.08;;;;;;;;;;5037217;28;20218;-46
2021/06/18 03:24:51;;;;;;;3.10;2.30;;;;;;;;;;5036932;28;20475;-46
2021/06/18 03:27:20;;;;;;;4.13;2.08;;;;;;;;;;5049936;28;20185;-46
2021/06/18 03:29:46;;;;;;;6.13;2.40;;;;;;;;;;5056214;28;20181;-46
2021/06/18 03:32:13;;;;;;;3.03;2.20;;;;;;;;;;5056847;28;20266;-46
2021/06/18 03:34:40;;;;;;;3.17;2.80;;;;;;;;;;5038745;28;20206;-46
2021/06/18 03:37:06;;;;;;;2.70;2.20;;;;;;;;;;5055198;28;20175;-46
2021/06/18 03:39:33;;;;;;;2.75;2.17;;;;;;;;;;5056608;28;20262;-46
2021/06/18 03:41:59;;;;;;;3.47;2.38;;;;;;;;;;5056493;28;20297;-46
2021/06/18 03:44:26;;;;;;;2.38;2.20;;;;;;;;;;5043347;28;20180;-46
2021/06/18 03:46:53;;;;;;;5.95;2.63;;;;;;;;;;5052379;28;20813;-46
2021/06/18 03:49:19;;;;;;;6.15;2.33;;;;;;;;;;5041108;28;20180;-46
2021/06/18 03:51:45;;;;;;;3.78;2.47;;;;;;;;;;5072524;28;20561;-46
2021/06/18 03:54:11;;;;;;;2.45;2.25;;;;;;;;;;5074550;28;20191;-46
2021/06/18 03:56:39;;;;;;;5.60;2.28;;;;;;;;;;5053707;28;20196;-46
2021/06/18 03:59:05;;;;;;;4.15;2.50;;;;;;;;;;5036135;28;20171;-46
2021/06/18 04:01:32;;;;;;;4.75;2.80;;;;;;;;;;5044578;28;20211;-46
2021/06/18 04:03:58;;;;;;;2.80;2.45;;;;;;;;;;5056096;28;20175;-46
2021/06/18 04:06:25;;;;;;;4.38;2.75;;;;;;;;;;5054858;28;20199;-46
2021/06/18 04:08:51;;;;;;;2.45;2.10;;;;;;;;;;5056018;28;20558;-46
2021/06/18 04:11:17;;;;;;;3.95;2.33;;;;;;;;;;5047192;28;20179;-46
2021/06/18 04:13:43;;;;;;;5.15;2.35;;;;;;;;;;5053850;28;20570;-46
2021/06/18 04:16:10;;;;;;;3.45;2.25;;;;;;;;;;5054283;28;20215;-46
2021/06/18 04:18:37;;;;;;;3.65;2.55;;;;;;;;;;5046284;28;20179;-46
2021/06/18 04:21:05;;;;;;;2.50;2.30;;;;;;;;;;5035549;28;20259;-46
2021/06/18 04:23:31;;;;;;;3.70;2.58;;;;;;;;;;5051516;28;20171;-46
2021/06/18 04:25:57;;;;;;;2.67;2.42;;;;;;;;;;5045838;28;20252;-46
2021/06/18 04:28:23;;;;;;;3.33;2.10;;;;;;;;;;5055577;28;20183;-46
2021/06/18 04:30:49;;;;;;;3.17;2.30;;;;;;;;;;5055176;28;20836;-46
2021/06/18 04:33:15;;;;;;;2.40;2.20;;;;;;;;;;5055674;28;20186;-46
2021/06/18 04:35:41;;;;;;;3.67;2.70;;;;;;;;;;5054821;28;20185;-46
2021/06/18 04:38:07;;;;;;;5.97;2.97;;;;;;;;;;5047281;28;20267;-46
2021/06/18 04:40:33;;;;;;;4.30;3.00;;;;;;;;;;5035505;28;20225;-46
2021/06/18 04:42:59;;;;;;;5.70;3.25;;;;;;;;;;5035459;28;20200;-46
2021/06/18 04:45:26;;;;;;;3.47;2.72;;;;;;;;;;5041881;28;20248;-46
2021/06/18 04:47:54;;;;;;;4.93;2.80;;;;;;;;;;5054445;28;20175;-46
2021/06/18 04:50:20;;;;;;;4.47;2.75;;;;;;;;;;5054830;28;20323;-46
2021/06/18 04:52:47;;;;;;;4.03;2.83;;;;;;;;;;5040218;28;20676;-46
2021/06/18 04:55:17;;;;;;;4.18;2.60;;;;;;;;;;5049359;28;20179;-46
2021/06/18 04:57:47;;;;;;;3.67;3.30;;;;;;;;;;5054203;28;20217;-46
2021/06/18 05:00:14;;;;;;;4.90;2.85;;;;;;;;;;5054398;28;20170;-46
2021/06/18 05:02:41;;;;;;;3.13;2.83;;;;;;;;;;5053954;28;20605;-46
2021/06/18 05:05:07;;;;;;;2.80;2.60;;;;;;;;;;5052702;28;20171;-46
2021/06/18 05:07:33;;;;;;;2.53;2.33;;;;;;;;;;5053003;28;20187;-47
2021/06/18 05:09:59;;;;;;;4.22;2.83;;;;;;;;;;5053039;28;20178;-46
2021/06/18 05:12:25;;;;;;;3.35;2.60;;;;;;;;;;5053136;28;20602;-46
2021/06/18 05:14:51;;;;;;;4.55;2.60;;;;;;;;;;5053389;28;20271;-46
2021/06/18 05:17:17;;;;;;;4.07;2.97;;;;;;;;;;5052378;28;20550;-46
2021/06/18 05:19:43;;;;;;;2.50;2.22;;;;;;;;;;5053067;28;20210;-46
2021/06/18 05:22:09;;;;;;;4.47;2.80;;;;;;;;;;5053334;28;20640;-46
2021/06/18 05:24:35;;;;;;;4.95;3.03;;;;;;;;;;5054325;28;20438;-46
2021/06/18 05:27:01;;;;;;;2.97;2.40;;;;;;;;;;5054300;28;20169;-46
2021/06/18 05:29:28;;;;;;;2.97;2.65;;;;;;;;;;5054666;28;20437;-46
2021/06/18 05:31:54;;;;;;;4.40;2.40;;;;;;;;;;5054436;28;20167;-46
2021/06/18 05:34:20;;;;;;;3.13;2.35;;;;;;;;;;5037964;28;20211;-46
2021/06/18 05:36:46;;;;;;;3.33;2.70;;;;;;;;;;5034301;28;20574;-46
2021/06/18 05:39:16;;;;;;;2.53;2.33;;;;;;;;;;5034428;28;20172;-46
2021/06/18 05:41:42;;;;;;;5.05;2.70;;;;;;;;;;5034395;28;20443;-46
2021/06/18 05:44:08;;;;;;;2.50;2.30;;;;;;;;;;5034854;28;20516;-46
2021/06/18 05:46:35;;;;;;;3.05;2.78;;;;;;;;;;5037351;28;20246;-46
2021/06/18 05:49:01;;;;;;;4.07;2.92;;;;;;;;;;5054018;28;20167;-46
2021/06/18 05:51:27;;;;;;;3.30;2.55;;;;;;;;;;5054183;28;20191;-46
2021/06/18 05:53:53;;;;;;;3.15;2.95;;;;;;;;;;5053911;28;20194;-46
2021/06/18 05:56:19;;;;;;;6.13;3.10;;;;;;;;;;5053984;28;20220;-46
2021/06/18 05:58:45;;;;;;;4.63;3.15;;;;;;;;;;5054281;28;20182;-46
2021/06/18 06:01:11;;;;;;;3.97;3.00;;;;;;;;;;5042997;28;20222;-46
2021/06/18 06:03:39;;;;;;;3.65;2.63;;;;;;;;;;5034365;28;20176;-46
2021/06/18 06:06:06;;;;;;;4.22;3.03;;;;;;;;;;5033970;28;20420;-46
2021/06/18 06:08:32;;;;;;;3.47;2.88;;;;;;;;;;5043423;28;20171;-46
2021/06/18 06:10:58;;;;;;;3.55;2.95;;;;;;;;;;5048895;28;20441;-46
2021/06/18 06:13:25;;;;;;;3.40;2.92;;;;;;;;;;5034207;28;20172;-46
2021/06/18 06:15:51;;;;;;;3.83;3.28;;;;;;;;;;5051538;28;20189;-46
2021/06/18 06:18:17;;;;;;;6.35;2.83;;;;;;;;;;5053286;28;20202;-46
2021/06/18 06:20:44;;;;;;;3.92;3.03;;;;;;;;;;5054170;28;20175;-46
2021/06/18 06:23:11;;;;;;;3.20;2.90;;;;;;;;;;5041906;28;20281;-46
2021/06/18 06:25:37;;;;;;;4.40;3.40;;;;;;;;;;5045583;28;20179;-46
2021/06/18 06:28:03;;;;;;;3.13;2.83;;;;;;;;;;5052754;28;20175;-47
2021/06/18 06:30:29;;;;;;;3.58;2.70;;;;;;;;;;5052626;28;20218;-46
2021/06/18 06:32:55;;;;;;;4.68;3.10;;;;;;;;;;5053842;28;20207;-46
2021/06/18 06:35:24;;;;;;;3.35;2.90;;;;;;;;;;5054061;28;20608;-46
2021/06/18 06:37:50;;;;;;;3.28;2.97;;;;;;;;;;5049893;28;20573;-46
2021/06/18 06:40:16;;;;;;;3.92;3.35;;;;;;;;;;5050275;28;20229;-46
2021/06/18 06:42:42;;;;;;;4.10;2.78;;;;;;;;;;5056686;28;20878;-46
2021/06/18 06:45:09;;;;;;;6.97;3.63;;;;;;;;;;5057452;28;20535;-46
2021/06/18 06:47:35;;;;;;;4.65;3.20;;;;;;;;;;5043842;28;20190;-46
2021/06/18 06:50:01;;;;;;;7.55;2.90;;;;;;;;;;5037397;28;20172;-46
2021/06/18 06:52:27;;;;;;;5.72;3.28;;;;;;;;;;5054956;28;20597;-46
2021/06/18 06:54:53;;;;;;;7.68;3.15;;;;;;;;;;5056916;28;20210;-46
2021/06/18 06:57:20;;;;;;;4.32;2.97;;;;;;;;;;5055985;28;20183;-46
2021/06/18 06:59:46;;;;;;;6.40;3.33;;;;;;;;;;5053956;28;20171;-46
2021/06/18 07:02:12;;;;;;;5.38;3.67;;;;;;;;;;5049197;28;20284;-46
2021/06/18 07:04:38;;;;;;;5.55;4.00;;;;;;;;;;5053723;28;20551;-46
2021/06/18 07:07:04;;;;;;;3.58;3.28;;;;;;;;;;5056855;28;20160;-46
2021/06/18 07:09:37;;;;;;;4.63;3.00;;;;;;;;;;5057275;28;20175;-46
2021/06/18 07:12:03;;;;;;;6.70;3.03;;;;;;;;;;5051757;28;20190;-46
2021/06/18 07:14:29;;;;;;;8.45;2.90;;;;;;;;;;5051089;28;20254;-46
2021/06/18 07:16:55;;;;;;;9.88;3.25;;;;;;;;;;5056331;28;20270;-46
2021/06/18 07:19:21;;;;;;;7.57;3.50;;;;;;;;;;5056623;28;20186;-46
2021/06/18 07:21:48;;;;;;;9.13;3.58;;;;;;;;;;5056830;28;20206;-46
2021/06/18 07:24:14;;;;;;;9.18;3.50;;;;;;;;;;5056843;28;20171;-46
2021/06/18 07:26:40;;;;;;;6.80;3.45;;;;;;;;;;5054516;28;20190;-46
2021/06/18 07:29:06;;;;;;;4.80;3.25;;;;;;;;;;5052078;28;20175;-46
2021/06/18 07:31:32;;;;;;;6.25;3.28;;;;;;;;;;5057003;28;20180;-46
2021/06/18 07:33:58;;;;;;;9.70;3.42;;;;;;;;;;5056775;28;20181;-46
2021/06/18 07:36:24;;;;;;;7.28;3.50;;;;;;;;;;5056767;28;20195;-46
2021/06/18 07:38:50;;;;;;;7.57;3.60;;;;;;;;;;5055568;28;20544;-46
2021/06/18 07:41:16;;;;;;;9.50;3.63;;;;;;;;;;5046287;28;20294;-46
2021/06/18 07:43:42;;;;;;;6.97;3.30;;;;;;;;;;5055685;28;20179;-47
2021/06/18 07:46:08;;;;;;;8.13;3.65;;;;;;;;;;5055935;28;20181;-46
2021/06/18 07:48:34;;;;;;;5.85;3.60;;;;;;;;;;5055229;28;20175;-46
2021/06/18 07:51:00;;;;;;;7.82;3.63;;;;;;;;;;5056170;28;20274;-46
2021/06/18 07:53:26;;;;;;;5.50;3.40;;;;;;;;;;5056329;28;20171;-47
2021/06/18 07:55:53;;;;;;;6.90;3.42;;;;;;;;;;5054820;28;20250;-46
2021/06/18 07:58:19;;;;;;;7.10;3.58;;;;;;;;;;5055905;28;20449;-46
2021/06/18 08:00:45;;;;;;;4.32;3.35;;;;;;;;;;5053801;28;20167;-46
2021/06/18 08:03:11;;;;;;;9.15;3.28;;;;;;;;;;5048625;28;20563;-46
2021/06/18 08:05:37;;;;;;;7.00;4.07;;;;;;;;;;5055816;28;20175;-46
2021/06/18 08:08:03;;;;;;;6.50;4.07;;;;;;;;;;5055169;28;20174;-46
2021/06/18 08:10:30;;;;;;;3.88;3.10;;;;;;;;;;5054171;28;20179;-46
2021/06/18 08:12:56;;;;;;;5.68;3.58;;;;;;;;;;5053910;28;20190;-46
2021/06/18 08:15:22;;;;;;;6.68;3.85;;;;;;;;;;5056125;28;20179;-46
2021/06/18 08:17:49;;;;;;;4.35;3.65;;;;;;;;;;5048982;28;20168;-47
2021/06/18 08:20:20;;;;;;;6.15;3.17;;;;;;;;;;5055605;28;20183;-46
2021/06/18 08:22:48;;;;;;;6.28;4.10;;;;;;;;;;5055644;28;20264;-46
2021/06/18 08:25:14;;;;;;;30.73;14.60;;;;;;;;;;5055571;28;20171;-47
2021/06/18 08:27:40;;;;;;;78.43;36.78;;;;;;;;;;5054626;28;20193;-46
2021/06/18 08:30:07;;;;;;;128.48;53.22;;;;;;;;;;5055681;28;20258;-46
2021/06/18 08:32:33;;;;;;;97.63;43.95;;;;;;;;;;5055019;28;20317;-46
2021/06/18 08:34:59;;;;;;;166.45;70.97;;;;;;;;;;5054698;28;20187;-46
2021/06/18 08:37:25;;;;;;;223.45;101.25;;;;;;;;;;5054185;28;20458;-46
2021/06/18 08:39:51;;;;;;;216.95;96.30;;;;;;;;;;5055322;28;20265;-47
2021/06/18 08:42:17;;;;;;;111.90;47.75;;;;;;;;;;5054872;28;20491;-47
2021/06/18 08:44:45;;;;;;;95.40;44.30;;;;;;;;;;5055453;28;20477;-47
2021/06/18 08:47:12;;;;;;;110.72;48.00;;;;;;;;;;5054497;28;20172;-47
2021/06/18 08:49:38;;;;;;;76.13;35.50;;;;;;;;;;5053350;28;20167;-47
2021/06/18 08:52:05;;;;;;;65.13;31.92;;;;;;;;;;5053819;28;20211;-46
2021/06/18 08:54:44;;;;;;;60.10;27.15;;;;;;;;;;5055202;28;20177;-46
2021/06/18 08:57:12;;;;;;;44.35;20.33;;;;;;;;;;5054398;28;20206;-46
2021/06/18 08:59:38;;;;;;;38.95;18.20;;;;;;;;;;5053288;28;20176;-46
2021/06/18 09:02:04;;;;;;;30.95;14.45;;;;;;;;;;5050977;28;20215;-47
2021/06/18 09:04:30;;;;;;;26.67;14.15;;;;;;;;;;5054371;28;20257;-46
2021/06/18 09:07:00;;;;;;;29.33;13.40;;;;;;;;;;5052657;28;20278;-46
2021/06/18 09:09:27;;;;;;;17.27;9.77;;;;;;;;;;5054824;28;20556;-47
2021/06/18 09:11:57;;;;;;;15.73;8.57;;;;;;;;;;5049683;28;20190;-46
2021/06/18 09:14:23;;;;;;;16.17;7.97;;;;;;;;;;5054450;28;20631;-46
2021/06/18 09:17:06;;;;;;;13.02;7.47;;;;;;;;;;5053761;28;20187;-47
2021/06/18 09:19:33;;;;;;;10.18;6.32;;;;;;;;;;5053712;28;20225;-46
2021/06/18 09:22:09;;;;;;;7.57;5.32;;;;;;;;;;5048287;28;20277;-47
2021/06/18 09:24:37;;;;;;;8.45;5.10;;;;;;;;;;5049419;28;20509;-46
2021/06/18 09:27:04;;;;;;;6.82;4.80;;;;;;;;;;5052772;28;20194;-47
2021/06/18 09:29:30;;;;;;;8.18;5.20;;;;;;;;;;5053842;28;20514;-46
2021/06/18 09:32:05;;;;;;;7.10;4.72;;;;;;;;;;5054743;28;20164;-47
2021/06/18 09:37:30;;;;;;;6.40;4.43;;;;;;;;;;5052618;28;20267;-47
2021/06/18 09:40:03;;;;;;;5.30;4.03;;;;;;;;;;5034200;28;20214;-46
2021/06/18 09:42:29;;;;;;;4.25;3.65;;;;;;;;;;5037143;28;20198;-47
2021/06/18 09:45:11;;;;;;;4.03;3.63;;;;;;;;;;5054622;28;20205;-46
2021/06/18 09:47:38;;;;;;;4.15;3.65;;;;;;;;;;5053734;28;20176;-46
2021/06/18 09:50:05;;;;;;;4.55;3.53;;;;;;;;;;5053792;28;20228;-46
2021/06/18 09:52:33;;;;;;;4.55;3.40;;;;;;;;;;5053650;28;20233;-46
2021/06/18 09:54:59;;;;;;;5.88;3.58;;;;;;;;;;5052785;28;20178;-46
2021/06/18 09:57:36;;;;;;;4.18;3.78;;;;;;;;;;5052857;28;20554;-47
2021/06/18 10:00:05;;;;;;;4.30;3.40;;;;;;;;;;5053739;28;20198;-46
2021/06/18 10:02:41;;;;;;;4.10;3.55;;;;;;;;;;5054097;28;20195;-46
2021/06/18 10:05:09;;;;;;;4.80;3.47;;;;;;;;;;5053388;28;20232;-46
2021/06/18 10:07:35;;;;;;;3.72;3.42;;;;;;;;;;5053687;28;20164;-46
2021/06/18 10:10:03;;;;;;;4.45;3.08;;;;;;;;;;5054166;28;20719;-46
2021/06/18 10:12:30;;;;;;;3.60;3.30;;;;;;;;;;5048555;28;20194;-46
2021/06/18 10:14:57;;;;;;;4.32;3.20;;;;;;;;;;5058128;28;20178;-46
2021/06/18 10:17:23;;;;;;;3.63;3.30;;;;;;;;;;5057130;28;20183;-46
2021/06/18 10:19:49;;;;;;;3.38;3.17;;;;;;;;;;5057461;28;20268;-46
2021/06/18 10:22:19;;;;;;;5.10;3.25;;;;;;;;;;5057419;28;20260;-46
2021/06/18 10:24:56;;;;;;;3.85;2.95;;;;;;;;;;5057159;28;20179;-46
2021/06/18 10:27:31;;;;;;;11.05;3.58;;;;;;;;;;5053480;28;20186;-46
2021/06/18 10:29:58;;;;;;;4.57;3.30;;;;;;;;;;5057497;28;20178;-46
2021/06/18 10:32:31;;;;;;;5.60;2.80;;;;;;;;;;5057577;28;20175;-46
2021/06/18 10:34:58;;;;;;;4.07;3.20;;;;;;;;;;5056866;28;20578;-46
2021/06/18 10:37:25;;;;;;;5.82;3.33;;;;;;;;;;5057204;28;20175;-47
2021/06/18 10:39:52;;;;;;;4.10;3.00;;;;;;;;;;5057811;28;20182;-46
2021/06/18 10:42:19;;;;;;;3.65;2.90;;;;;;;;;;5057323;28;20192;-46
2021/06/18 10:44:46;;;;;;;3.45;3.10;;;;;;;;;;5055773;28;20170;-46
2021/06/18 10:47:43;;;;;;;3.95;3.63;;;;;;;;;;5056221;28;20185;-47
2021/06/18 10:50:09;;;;;;;2.95;2.75;;;;;;;;;;5056623;28;20570;-46
2021/06/18 10:52:45;;;;;;;3.60;3.28;;;;;;;;;;5057744;28;20190;-47
2021/06/18 10:55:14;;;;;;;4.63;3.10;;;;;;;;;;5057089;28;20835;-47
2021/06/18 10:57:52;;;;;;;5.50;3.40;;;;;;;;;;5056548;28;20324;-47
2021/06/18 11:00:20;;;;;;;3.72;3.10;;;;;;;;;;5055670;28;20223;-46
2021/06/18 11:02:47;;;;;;;3.63;3.28;;;;;;;;;;5051573;28;20199;-46
2021/06/18 11:05:15;;;;;;;3.58;3.25;;;;;;;;;;5056831;28;20180;-46
2021/06/18 11:07:42;;;;;;;4.75;2.90;;;;;;;;;;5056304;28;20188;-47
2021/06/18 11:10:17;;;;;;;2.95;2.75;;;;;;;;;;5056936;28;20195;-46
2021/06/18 11:12:49;;;;;;;4.63;3.08;;;;;;;;;;5037331;28;20175;-46
2021/06/18 11:15:21;;;;;;;2.88;2.67;;;;;;;;;;5049188;28;20187;-47
2021/06/18 11:17:52;;;;;;;3.53;2.90;;;;;;;;;;5052283;28;20190;-47
2021/06/18 11:20:20;;;;;;;3.00;2.70;;;;;;;;;;5056707;28;20179;-47
2021/06/18 11:22:48;;;;;;;3.78;3.25;;;;;;;;;;5056005;28;20704;-46
2021/06/18 11:25:32;;;;;;;7.03;3.55;;;;;;;;;;5057200;28;20197;-46
2021/06/18 11:28:17;;;;;;;4.35;3.28;;;;;;;;;;5056405;28;20159;-47
2021/06/18 11:30:52;;;;;;;3.97;3.63;;;;;;;;;;5055796;28;20179;-47
2021/06/18 11:33:37;;;;;;;4.40;3.08;;;;;;;;;;5043012;28;20175;-47
2021/06/18 11:36:07;;;;;;;4.55;3.58;;;;;;;;;;5055112;28;20237;-47
2021/06/18 11:38:34;;;;;;;4.30;2.97;;;;;;;;;;5056127;28;20210;-47
2021/06/18 11:41:02;;;;;;;4.80;2.95;;;;;;;;;;5056668;28;20198;-47
2021/06/18 11:43:29;;;;;;;7.15;3.15;;;;;;;;;;5056457;28;20191;-47
2021/06/18 11:45:55;;;;;;;5.40;3.47;;;;;;;;;;5055209;28;20266;-47
2021/06/18 11:48:21;;;;;;;4.03;3.00;;;;;;;;;;5054255;28;20254;-46
2021/06/18 11:50:48;;;;;;;4.93;3.40;;;;;;;;;;5052918;28;20210;-47
2021/06/18 11:53:15;;;;;;;5.07;3.63;;;;;;;;;;5056065;28;20418;-47
2021/06/18 11:55:41;;;;;;;4.57;3.30;;;;;;;;;;5051735;28;20190;-47
2021/06/18 11:58:08;;;;;;;4.03;3.47;;;;;;;;;;5049402;28;20185;-46
2021/06/18 12:00:35;;;;;;;4.13;3.20;;;;;;;;;;5056205;28;20259;-47
2021/06/18 12:03:02;;;;;;;4.38;2.90;;;;;;;;;;5055958;28;20657;-47
2021/06/18 12:05:31;;;;;;;4.18;3.38;;;;;;;;;;5053866;28;20202;-47
2021/06/18 12:07:57;;;;;;;3.33;2.95;;;;;;;;;;5055049;28;20231;-47
2021/06/18 12:10:28;;;;;;;2.92;2.72;;;;;;;;;;5058591;28;20172;-46
2021/06/18 12:12:56;;;;;;;4.70;3.00;;;;;;;;;;5058555;28;20235;-47
2021/06/18 12:15:27;;;;;;;5.63;3.22;;;;;;;;;;5058467;28;20176;-47
2021/06/18 12:17:55;;;;;;;3.25;2.95;;;;;;;;;;5058115;28;20543;-47
2021/06/18 12:20:24;;;;;;;3.33;3.03;;;;;;;;;;5058232;28;20217;-46
2021/06/18 12:22:50;;;;;;;3.22;2.92;;;;;;;;;;5058280;28;20192;-47
2021/06/18 12:25:16;;;;;;;4.07;2.67;;;;;;;;;;5058273;28;20194;-46
2021/06/18 12:27:42;;;;;;;3.95;3.15;;;;;;;;;;5057983;28;20202;-47
2021/06/18 12:30:13;;;;;;;3.70;3.38;;;;;;;;;;5058143;28;20465;-47
2021/06/18 12:32:39;;;;;;;3.35;2.97;;;;;;;;;;5058022;28;20164;-47
2021/06/18 12:35:12;;;;;;;3.42;3.13;;;;;;;;;;5056958;28;20167;-47
2021/06/18 12:37:42;;;;;;;3.30;3.00;;;;;;;;;;5057508;28;20190;-47
2021/06/18 12:40:29;;;;;;;3.20;2.90;;;;;;;;;;5058520;28;20257;-47
2021/06/18 12:42:56;;;;;;;3.35;3.05;;;;;;;;;;5052111;28;20199;-47
2021/06/18 12:45:23;;;;;;;2.92;2.70;;;;;;;;;;5054986;28;20224;-47
2021/06/18 12:47:51;;;;;;;4.95;3.10;;;;;;;;;;5054648;28;20175;-47
2021/06/18 12:50:29;;;;;;;5.20;3.08;;;;;;;;;;5054668;28;20456;-47
2021/06/18 12:52:56;;;;;;;3.70;3.03;;;;;;;;;;5036575;28;20175;-47
2021/06/18 12:55:42;;;;;;;3.10;2.80;;;;;;;;;;5040696;28;20171;-47
2021/06/18 12:58:17;;;;;;;2.78;2.58;;;;;;;;;;5034818;28;20418;-47
2021/06/18 13:00:43;;;;;;;3.33;3.00;;;;;;;;;;5048597;28;20201;-47
2021/06/18 13:03:10;;;;;;;3.60;3.30;;;;;;;;;;5055040;28;20238;-46
2021/06/18 13:05:36;;;;;;;3.72;3.30;;;;;;;;;;5054636;28;20183;-47
2021/06/18 13:08:15;;;;;;;3.85;3.45;;;;;;;;;;5053858;28;20597;-47
2021/06/18 13:10:41;;;;;;;4.80;3.22;;;;;;;;;;5047862;28;20194;-47
2021/06/18 13:13:07;;;;;;;3.30;3.00;;;;;;;;;;5054813;28;20190;-47
2021/06/18 13:15:33;;;;;;;3.15;2.83;;;;;;;;;;5054690;28;20559;-47
2021/06/18 13:18:01;;;;;;;4.93;3.03;;;;;;;;;;5054076;28;20461;-47
2021/06/18 13:20:31;;;;;;;4.63;2.97;;;;;;;;;;5054149;28;20179;-47
2021/06/18 13:22:57;;;;;;;3.60;3.30;;;;;;;;;;5054550;28;20203;-47
2021/06/18 13:25:28;;;;;;;4.32;2.78;;;;;;;;;;5054691;28;20214;-47
2021/06/18 13:27:54;;;;;;;3.63;3.20;;;;;;;;;;5052390;28;20175;-47
2021/06/18 13:30:20;;;;;;;3.03;2.83;;;;;;;;;;5054608;28;20163;-47
2021/06/18 13:32:47;;;;;;;3.35;2.83;;;;;;;;;;5054265;28;20229;-47
2021/06/18 13:35:14;;;;;;;3.40;3.00;;;;;;;;;;5053947;28;20183;-47
2021/06/18 13:37:41;;;;;;;4.38;2.85;;;;;;;;;;5050027;28;20465;-47
2021/06/18 13:40:13;;;;;;;3.58;2.88;;;;;;;;;;5043000;28;20190;-46
2021/06/18 13:42:39;;;;;;;4.07;3.40;;;;;;;;;;5040722;28;20207;-47
2021/06/18 13:45:06;;;;;;;3.17;2.97;;;;;;;;;;5044087;28;20171;-47
2021/06/18 13:47:32;;;;;;;3.60;2.78;;;;;;;;;;5053653;28;20183;-47
2021/06/18 13:50:01;;;;;;;3.47;2.90;;;;;;;;;;5053663;28;20195;-47
2021/06/18 13:52:27;;;;;;;4.57;2.60;;;;;;;;;;5054133;28;20191;-47
2021/06/18 13:54:53;;;;;;;3.70;3.40;;;;;;;;;;5054113;28;20171;-47
2021/06/18 13:57:19;;;;;;;3.50;3.20;;;;;;;;;;5053642;28;20178;-47
2021/06/18 13:59:45;;;;;;;3.33;3.00;;;;;;;;;;5050339;28;20195;-47
2021/06/18 14:02:11;;;;;;;4.72;3.10;;;;;;;;;;5053614;28;20202;-47
2021/06/18 14:04:37;;;;;;;3.47;3.17;;;;;;;;;;5053528;28;20171;-47
2021/06/18 14:07:03;;;;;;;3.53;3.17;;;;;;;;;;5053184;28;20598;-47
2021/06/18 14:09:29;;;;;;;5.20;2.90;;;;;;;;;;5053773;28;20191;-47
2021/06/18 14:11:55;;;;;;;3.67;2.92;;;;;;;;;;5050153;28;20500;-47
2021/06/18 14:14:22;;;;;;;4.43;3.47;;;;;;;;;;5052167;28;20182;-47
2021/06/18 14:16:51;;;;;;;4.07;3.40;;;;;;;;;;5042900;28;20190;-47
2021/06/18 14:19:17;;;;;;;5.30;3.47;;;;;;;;;;5053201;28;20269;-47
2021/06/18 14:21:43;;;;;;;3.00;2.80;;;;;;;;;;5053749;28;20230;-47
2021/06/18 14:24:09;;;;;;;3.22;2.92;;;;;;;;;;5054049;28;20179;-47
2021/06/18 14:26:35;;;;;;;3.55;3.25;;;;;;;;;;5040955;28;20188;-47
2021/06/18 14:29:01;;;;;;;2.95;2.75;;;;;;;;;;5053284;28;20175;-47
2021/06/18 14:31:27;;;;;;;3.97;2.97;;;;;;;;;;5051565;28;20258;-47
2021/06/18 14:33:53;;;;;;;4.30;3.42;;;;;;;;;;5053015;28;20183;-47
2021/06/18 14:36:19;;;;;;;4.30;2.78;;;;;;;;;;5050309;28;20290;-47
2021/06/18 14:38:45;;;;;;;3.25;3.05;;;;;;;;;;5052213;28;20172;-47
2021/06/18 14:41:11;;;;;;;2.88;2.58;;;;;;;;;;5052989;28;20175;-47
2021/06/18 14:43:37;;;;;;;3.95;2.88;;;;;;;;;;5052490;28;20191;-47
2021/06/18 14:46:03;;;;;;;2.88;2.67;;;;;;;;;;5051946;28;20175;-47
2021/06/18 14:48:29;;;;;;;4.88;3.03;;;;;;;;;;5050540;28;20179;-47